Terminal Aerodrome Forecast
Issued by NWS Louisville, KY

Home | Current Version | Previous Version | Text Only | Print | Product List | Glossary On
Versions: 1 2 3 4 5 6 7 8 9 10 11 12 13 14 15 16 17 18 19
705
FTUS43 KLMK 210643 AAA
TAFSDF
TAF AMD
KSDF 210643Z 2107/2212 32010KT P6SM VCSH OVC035
      TEMPO 2107/2108 BKN025
     FM210800 33008KT P6SM BKN050 BKN250
     FM212000 34009KT P6SM VCSH BKN080
     FM220000 02010KT 5SM -SHRA OVC018=

USA.gov is the U.S. government's official web portal to all federal, state and local government web resources and services.